sensor_id;sensor_type;location;lat;lon;timestamp;pressure;altitude;pressure_sealevel;temperature;humidity
55610;BME280;41486;52.502;13.486;2023-01-05T00:01:41;100124.19;;;9.36;100.00
55610;BME280;41486;52.502;13.486;2023-01-05T00:04:09;100128.38;;;9.38;100.00
55610;BME280;41486;52.502;13.486;2023-01-05T00:06:38;100126.47;;;9.40;100.00
55610;BME280;41486;52.502;13.486;2023-01-05T00:09:10;100129.09;;;9.40;100.00
55610;BME280;41486;52.502;13.486;2023-01-05T00:11:38;100142.09;;;9.42;100.00
55610;BME280;41486;52.502;13.486;2023-01-05T00:14:27;100126.47;;;9.40;100.00
55610;BME280;41486;52.502;13.486;2023-01-05T00:17:15;100126.47;;;9.40;100.00
55610;BME280;41486;52.502;13.486;2023-01-05T00:20:00;100129.31;;;9.49;100.00
55610;BME280;41486;52.502;13.486;2023-01-05T00:22:47;100131.81;;;9.50;100.00
55610;BME280;41486;52.502;13.486;2023-01-05T00:25:19;100137.66;;;9.42;100.00
55610;BME280;41486;52.502;13.486;2023-01-05T00:27:48;100117.13;;;9.47;100.00
55610;BME280;41486;52.502;13.486;2023-01-05T00:30:18;100134.66;;;9.47;100.00
55610;BME280;41486;52.502;13.486;2023-01-05T00:32:47;100139.22;;;9.45;100.00
55610;BME280;41486;52.502;13.486;2023-01-05T00:35:16;100136.34;;;9.48;100.00
55610;BME280;41486;52.502;13.486;2023-01-05T00:37:44;100142.53;;;9.58;100.00
55610;BME280;41486;52.502;13.486;2023-01-05T00:40:13;100129.84;;;9.63;100.00
55610;BME280;41486;52.502;13.486;2023-01-05T00:42:44;100133.91;;;9.68;100.00
55610;BME280;41486;52.502;13.486;2023-01-05T00:45:13;100135.59;;;9.57;100.00
55610;BME280;41486;52.502;13.486;2023-01-05T00:47:42;100124.50;;;9.65;100.00
55610;BME280;41486;52.502;13.486;2023-01-05T00:50:12;100144.53;;;9.66;100.00
55610;BME280;41486;52.502;13.486;2023-01-05T00:52:41;100126.41;;;9.63;100.00
55610;BME280;41486;52.502;13.486;2023-01-05T00:55:09;100131.88;;;9.71;100.00
55610;BME280;41486;52.502;13.486;2023-01-05T00:57:38;100137.13;;;9.71;100.00
55610;BME280;41486;52.502;13.486;2023-01-05T01:00:11;100136.28;;;9.71;100.00
55610;BME280;41486;52.502;13.486;2023-01-05T01:02:40;100128.16;;;9.74;100.00
55610;BME280;41486;52.502;13.486;2023-01-05T01:05:08;100140.19;;;9.76;100.00
55610;BME280;41486;52.502;13.486;2023-01-05T01:07:39;100131.16;;;9.69;100.00
55610;BME280;41486;52.502;13.486;2023-01-05T01:10:09;100128.53;;;9.69;100.00
55610;BME280;41486;52.502;13.486;2023-01-05T01:12:37;100137.88;;;9.62;100.00
55610;BME280;41486;52.502;13.486;2023-01-05T01:15:06;100113.22;;;9.74;100.00
55610;BME280;41486;52.502;13.486;2023-01-05T01:17:36;100145.31;;;9.78;100.00
55610;BME280;41486;52.502;13.486;2023-01-05T01:20:05;100142.69;;;9.78;100.00
55610;BME280;41486;52.502;13.486;2023-01-05T01:22:33;100128.16;;;9.74;100.00
55610;BME280;41486;52.502;13.486;2023-01-05T01:25:01;100126.94;;;9.78;100.00
55610;BME280;41486;52.502;13.486;2023-01-05T01:27:29;100130.78;;;9.74;100.00
55610;BME280;41486;52.502;13.486;2023-01-05T01:29:59;100139.97;;;9.79;100.00
55610;BME280;41486;52.502;13.486;2023-01-05T01:32:27;100137.84;;;9.73;100.00
55610;BME280;41486;52.502;13.486;2023-01-05T01:34:57;100131.00;;;9.71;100.00
55610;BME280;41486;52.502;13.486;2023-01-05T01:37:25;100143.94;;;9.62;100.00
55610;BME280;41486;52.502;13.486;2023-01-05T01:39:55;100127.66;;;9.80;100.00
55610;BME280;41486;52.502;13.486;2023-01-05T01:42:23;100134.22;;;9.74;100.00
55610;BME280;41486;52.502;13.486;2023-01-05T01:44:54;100117.28;;;9.78;100.00
55610;BME280;41486;52.502;13.486;2023-01-05T01:47:30;100132.31;;;9.76;100.00
55610;BME280;41486;52.502;13.486;2023-01-05T01:50:03;100143.91;;;9.74;100.00
55610;BME280;41486;52.502;13.486;2023-01-05T01:52:33;100129.25;;;9.71;100.00
55610;BME280;41486;52.502;13.486;2023-01-05T01:55:04;100139.47;;;9.74;100.00
55610;BME280;41486;52.502;13.486;2023-01-05T01:57:34;100130.53;;;9.77;100.00
55610;BME280;41486;52.502;13.486;2023-01-05T02:00:05;100137.34;;;9.79;100.00
55610;BME280;41486;52.502;13.486;2023-01-05T02:02:44;100127.41;;;9.83;100.00
55610;BME280;41486;52.502;13.486;2023-01-05T02:05:17;100135.81;;;9.77;100.00
55610;BME280;41486;52.502;13.486;2023-01-05T02:07:46;100138.03;;;9.82;100.00
55610;BME280;41486;52.502;13.486;2023-01-05T02:10:17;100133.28;;;9.75;100.00
55610;BME280;41486;52.502;13.486;2023-01-05T02:13:02;100124.78;;;9.83;100.00
55610;BME280;41486;52.502;13.486;2023-01-05T02:15:38;100143.91;;;9.85;100.00
55610;BME280;41486;52.502;13.486;2023-01-05T02:18:22;100117.84;;;9.82;100.00
55610;BME280;41486;52.502;13.486;2023-01-05T02:21:18;100144.00;;;9.84;100.00
55610;BME280;41486;52.502;13.486;2023-01-05T02:24:16;100119.97;;;9.88;100.00
55610;BME280;41486;52.502;13.486;2023-01-05T02:27:17;100113.78;;;9.78;100.00
55610;BME280;41486;52.502;13.486;2023-01-05T02:30:19;100114.38;;;9.82;100.00
55610;BME280;41486;52.502;13.486;2023-01-05T02:32:59;100105.66;;;9.81;100.00
55610;BME280;41486;52.502;13.486;2023-01-05T02:35:38;100104.13;;;9.78;100.00
55610;BME280;41486;52.502;13.486;2023-01-05T02:38:12;100099.69;;;9.79;100.00
55610;BME280;41486;52.502;13.486;2023-01-05T02:40:47;100089.34;;;9.66;100.00
55610;BME280;41486;52.502;13.486;2023-01-05T02:43:19;100107.38;;;9.71;100.00
55610;BME280;41486;52.502;13.486;2023-01-05T02:45:48;100114.88;;;9.75;100.00
55610;BME280;41486;52.502;13.486;2023-01-05T02:48:18;100111.28;;;9.76;100.00
55610;BME280;41486;52.502;13.486;2023-01-05T02:50:49;100103.88;;;9.82;100.00
55610;BME280;41486;52.502;13.486;2023-01-05T02:53:21;100111.28;;;9.88;100.00
55610;BME280;41486;52.502;13.486;2023-01-05T02:55:56;100108.31;;;9.81;100.00
55610;BME280;41486;52.502;13.486;2023-01-05T02:58:34;100106.38;;;9.83;100.00
55610;BME280;41486;52.502;13.486;2023-01-05T03:01:07;100115.81;;;9.86;100.00
55610;BME280;41486;52.502;13.486;2023-01-05T03:03:40;100116.91;;;9.83;100.00
55610;BME280;41486;52.502;13.486;2023-01-05T03:06:13;100109.84;;;9.84;100.00
55610;BME280;41486;52.502;13.486;2023-01-05T03:08:47;100114.47;;;9.91;100.00
55610;BME280;41486;52.502;13.486;2023-01-05T03:11:18;100110.34;;;9.77;100.00
55610;BME280;41486;52.502;13.486;2023-01-05T03:14:08;100130.13;;;9.82;100.00
55610;BME280;41486;52.502;13.486;2023-01-05T03:16:38;100124.66;;;9.85;100.00
55610;BME280;41486;52.502;13.486;2023-01-05T03:19:11;100118.31;;;9.87;100.00
55610;BME280;41486;52.502;13.486;2023-01-05T03:22:00;100118.31;;;9.87;100.00
55610;BME280;41486;52.502;13.486;2023-01-05T03:24:46;100101.84;;;9.85;100.00
55610;BME280;41486;52.502;13.486;2023-01-05T03:27:36;100127.19;;;9.75;100.00
55610;BME280;41486;52.502;13.486;2023-01-05T03:30:28;100115.94;;;9.84;100.00
55610;BME280;41486;52.502;13.486;2023-01-05T03:33:22;100122.03;;;9.85;100.00
55610;BME280;41486;52.502;13.486;2023-01-05T03:36:14;100122.88;;;9.85;100.00
55610;BME280;41486;52.502;13.486;2023-01-05T03:38:46;100107.09;;;9.85;100.00
55610;BME280;41486;52.502;13.486;2023-01-05T03:41:16;100107.94;;;9.86;100.00
55610;BME280;41486;52.502;13.486;2023-01-05T03:43:46;100096.69;;;9.84;100.00
55610;BME280;41486;52.502;13.486;2023-01-05T03:46:20;100109.00;;;9.83;100.00
55610;BME280;41486;52.502;13.486;2023-01-05T03:48:49;100120.69;;;9.90;100.00
55610;BME280;41486;52.502;13.486;2023-01-05T03:51:20;100128.44;;;9.92;100.00
55610;BME280;41486;52.502;13.486;2023-01-05T03:53:48;100120.94;;;9.87;100.00
55610;BME280;41486;52.502;13.486;2023-01-05T03:56:17;100124.13;;;9.91;100.00
55610;BME280;41486;52.502;13.486;2023-01-05T03:58:45;100123.31;;;9.90;100.00
55610;BME280;41486;52.502;13.486;2023-01-05T04:01:13;100135.16;;;9.85;100.00
55610;BME280;41486;52.502;13.486;2023-01-05T04:03:41;100134.13;;;9.76;100.00
55610;BME280;41486;52.502;13.486;2023-01-05T04:06:10;100152.88;;;9.71;100.00
55610;BME280;41486;52.502;13.486;2023-01-05T04:08:40;100150.00;;;9.74;100.00
55610;BME280;41486;52.502;13.486;2023-01-05T04:11:10;100142.47;;;9.70;100.00
55610;BME280;41486;52.502;13.486;2023-01-05T04:13:39;100149.31;;;9.61;100.00
55610;BME280;41486;52.502;13.486;2023-01-05T04:16:07;100149.19;;;9.62;100.00
55610;BME280;41486;52.502;13.486;2023-01-05T04:18:37;100152.41;;;9.66;100.00
55610;BME280;41486;52.502;13.486;2023-01-05T04:21:08;100163.50;;;9.70;100.00
55610;BME280;41486;52.502;13.486;2023-01-05T04:23:37;100168.66;;;9.71;100.00
55610;BME280;41486;52.502;13.486;2023-01-05T04:26:06;100164.81;;;9.75;100.00
55610;BME280;41486;52.502;13.486;2023-01-05T04:28:36;100162.75;;;9.79;100.00
55610;BME280;41486;52.502;13.486;2023-01-05T04:31:04;100176.63;;;9.70;100.00
55610;BME280;41486;52.502;13.486;2023-01-05T04:33:32;100174.50;;;9.63;100.00
55610;BME280;41486;52.502;13.486;2023-01-05T04:36:02;100165.72;;;9.42;100.00
55610;BME280;41486;52.502;13.486;2023-01-05T04:38:31;100163.84;;;9.21;100.00
55610;BME280;41486;52.502;13.486;2023-01-05T04:41:00;100184.38;;;9.05;100.00
55610;BME280;41486;52.502;13.486;2023-01-05T04:43:30;100167.78;;;9.04;100.00
55610;BME280;41486;52.502;13.486;2023-01-05T04:46:00;100176.38;;;9.06;100.00
55610;BME280;41486;52.502;13.486;2023-01-05T04:48:29;100172.53;;;9.10;100.00
55610;BME280;41486;52.502;13.486;2023-01-05T04:50:58;100180.91;;;9.15;100.00
55610;BME280;41486;52.502;13.486;2023-01-05T04:53:30;100171.22;;;9.27;100.00
55610;BME280;41486;52.502;13.486;2023-01-05T04:55:59;100180.53;;;9.31;100.00
55610;BME280;41486;52.502;13.486;2023-01-05T04:58:34;100194.84;;;9.39;100.00
55610;BME280;41486;52.502;13.486;2023-01-05T05:01:02;100194.03;;;9.38;100.00
55610;BME280;41486;52.502;13.486;2023-01-05T05:03:33;100197.97;;;9.21;100.00
55610;BME280;41486;52.502;13.486;2023-01-05T05:06:04;100188.78;;;9.15;100.00
55610;BME280;41486;52.502;13.486;2023-01-05T05:08:32;100188.66;;;9.17;100.00
55610;BME280;41486;52.502;13.486;2023-01-05T05:11:02;100192.00;;;9.19;100.00
55610;BME280;41486;52.502;13.486;2023-01-05T05:13:35;100198.06;;;9.20;100.00
55610;BME280;41486;52.502;13.486;2023-01-05T05:16:04;100216.34;;;9.21;100.00
55610;BME280;41486;52.502;13.486;2023-01-05T05:18:33;100228.75;;;9.19;100.00
55610;BME280;41486;52.502;13.486;2023-01-05T05:21:02;100199.16;;;9.17;100.00
55610;BME280;41486;52.502;13.486;2023-01-05T05:23:34;100207.84;;;9.18;100.00
55610;BME280;41486;52.502;13.486;2023-01-05T05:26:03;100217.75;;;9.14;100.00
55610;BME280;41486;52.502;13.486;2023-01-05T05:28:32;100214.66;;;9.09;100.00
55610;BME280;41486;52.502;13.486;2023-01-05T05:31:01;100207.59;;;9.09;100.00
55610;BME280;41486;52.502;13.486;2023-01-05T05:33:29;100212.88;;;8.98;100.00
55610;BME280;41486;52.502;13.486;2023-01-05T05:35:57;100201.16;;;8.91;100.00
55610;BME280;41486;52.502;13.486;2023-01-05T05:38:25;100206.38;;;8.79;100.00
55610;BME280;41486;52.502;13.486;2023-01-05T05:40:53;100214.97;;;8.81;100.00
55610;BME280;41486;52.502;13.486;2023-01-05T05:43:21;100207.00;;;8.83;100.00
55610;BME280;41486;52.502;13.486;2023-01-05T05:45:49;100208.06;;;8.80;100.00
55610;BME280;41486;52.502;13.486;2023-01-05T05:48:19;100215.81;;;8.82;100.00
55610;BME280;41486;52.502;13.486;2023-01-05T05:50:46;100214.41;;;8.89;100.00
55610;BME280;41486;52.502;13.486;2023-01-05T05:53:14;100198.66;;;8.89;100.00
55610;BME280;41486;52.502;13.486;2023-01-05T05:55:46;100200.22;;;8.92;100.00
55610;BME280;41486;52.502;13.486;2023-01-05T05:58:14;100201.78;;;8.94;100.00
55610;BME280;41486;52.502;13.486;2023-01-05T06:00:43;100198.66;;;8.89;100.00
55610;BME280;41486;52.502;13.486;2023-01-05T06:03:11;100203.53;;;8.94;100.00
55610;BME280;41486;52.502;13.486;2023-01-05T06:05:41;100215.59;;;8.85;100.00
55610;BME280;41486;52.502;13.486;2023-01-05T06:08:09;100227.84;;;8.73;100.00
55610;BME280;41486;52.502;13.486;2023-01-05T06:10:37;100260.25;;;8.61;100.00
55610;BME280;41486;52.502;13.486;2023-01-05T06:13:05;100238.88;;;8.54;100.00
55610;BME280;41486;52.502;13.486;2023-01-05T06:15:33;100230.41;;;8.50;100.00
55610;BME280;41486;52.502;13.486;2023-01-05T06:18:01;100241.13;;;8.47;100.00
55610;BME280;41486;52.502;13.486;2023-01-05T06:20:29;100246.06;;;8.39;100.00
55610;BME280;41486;52.502;13.486;2023-01-05T06:22:59;100241.84;;;8.25;100.00
55610;BME280;41486;52.502;13.486;2023-01-05T06:25:27;100253.09;;;8.14;100.00
55610;BME280;41486;52.502;13.486;2023-01-05T06:27:54;100256.44;;;8.16;100.00
55610;BME280;41486;52.502;13.486;2023-01-05T06:30:23;100264.50;;;8.13;100.00
55610;BME280;41486;52.502;13.486;2023-01-05T06:32:51;100266.63;;;8.08;100.00
55610;BME280;41486;52.502;13.486;2023-01-05T06:35:19;100267.72;;;8.05;100.00
55610;BME280;41486;52.502;13.486;2023-01-05T06:37:48;100267.81;;;8.04;100.00
55610;BME280;41486;52.502;13.486;2023-01-05T06:40:17;100268.44;;;8.08;100.00
55610;BME280;41486;52.502;13.486;2023-01-05T06:42:45;100264.03;;;8.08;100.00
55610;BME280;41486;52.502;13.486;2023-01-05T06:45:14;100284.22;;;8.19;100.00
55610;BME280;41486;52.502;13.486;2023-01-05T06:47:42;100276.41;;;8.30;100.00
55610;BME280;41486;52.502;13.486;2023-01-05T06:50:10;100278.25;;;8.41;100.00
55610;BME280;41486;52.502;13.486;2023-01-05T06:52:38;100292.16;;;8.55;100.00
55610;BME280;41486;52.502;13.486;2023-01-05T06:55:07;100279.44;;;8.61;100.00
55610;BME280;41486;52.502;13.486;2023-01-05T06:57:37;100282.88;;;8.62;100.00
55610;BME280;41486;52.502;13.486;2023-01-05T07:00:08;100276.69;;;8.63;100.00
55610;BME280;41486;52.502;13.486;2023-01-05T07:02:36;100304.72;;;8.62;100.00
55610;BME280;41486;52.502;13.486;2023-01-05T07:05:05;100275.53;;;8.67;100.00
55610;BME280;41486;52.502;13.486;2023-01-05T07:07:33;100286.16;;;8.77;100.00
55610;BME280;41486;52.502;13.486;2023-01-05T07:10:03;100286.16;;;8.77;100.00
55610;BME280;41486;52.502;13.486;2023-01-05T07:12:31;100271.25;;;8.77;100.00
55610;BME280;41486;52.502;13.486;2023-01-05T07:15:01;100301.09;;;8.76;100.00
55610;BME280;41486;52.502;13.486;2023-01-05T07:17:29;100293.91;;;8.78;100.00
55610;BME280;41486;52.502;13.486;2023-01-05T07:19:57;100278.78;;;8.82;100.00
55610;BME280;41486;52.502;13.486;2023-01-05T07:22:25;100315.41;;;8.83;100.00
55610;BME280;41486;52.502;13.486;2023-01-05T07:24:56;100313.63;;;8.84;100.00
55610;BME280;41486;52.502;13.486;2023-01-05T07:27:25;100305.00;;;8.82;100.00
55610;BME280;41486;52.502;13.486;2023-01-05T07:29:53;100314.81;;;8.80;100.00
55610;BME280;41486;52.502;13.486;2023-01-05T07:32:22;100318.13;;;8.82;100.00
55610;BME280;41486;52.502;13.486;2023-01-05T07:34:50;100313.00;;;8.80;100.00
55610;BME280;41486;52.502;13.486;2023-01-05T07:37:22;100323.50;;;8.80;100.00
55610;BME280;41486;52.502;13.486;2023-01-05T07:39:51;100315.75;;;8.79;100.00
55610;BME280;41486;52.502;13.486;2023-01-05T07:42:19;100317.03;;;8.73;100.00
55610;BME280;41486;52.502;13.486;2023-01-05T07:44:49;100338.25;;;8.70;100.00
55610;BME280;41486;52.502;13.486;2023-01-05T07:47:18;100339.09;;;8.71;100.00
55610;BME280;41486;52.502;13.486;2023-01-05T07:49:47;100354.09;;;8.68;100.00
55610;BME280;41486;52.502;13.486;2023-01-05T07:52:17;100351.59;;;8.67;100.00
55610;BME280;41486;52.502;13.486;2023-01-05T07:54:45;100349.81;;;8.67;100.00
55610;BME280;41486;52.502;13.486;2023-01-05T07:57:13;100354.22;;;8.67;100.00
55610;BME280;41486;52.502;13.486;2023-01-05T07:59:41;100376.38;;;8.63;100.00
55610;BME280;41486;52.502;13.486;2023-01-05T08:02:09;100362.97;;;8.55;100.00
55610;BME280;41486;52.502;13.486;2023-01-05T08:04:38;100349.66;;;8.58;100.00
55610;BME280;41486;52.502;13.486;2023-01-05T08:07:07;100406.94;;;8.51;100.00
55610;BME280;41486;52.502;13.486;2023-01-05T08:09:37;100383.13;;;8.54;100.00
55610;BME280;41486;52.502;13.486;2023-01-05T08:12:22;100392.56;;;8.57;100.00
55610;BME280;41486;52.502;13.486;2023-01-05T08:14:50;100362.88;;;8.56;100.00
55610;BME280;41486;52.502;13.486;2023-01-05T08:17:18;100409.84;;;8.59;100.00
55610;BME280;41486;52.502;13.486;2023-01-05T08:19:46;100406.63;;;8.56;100.00
55610;BME280;41486;52.502;13.486;2023-01-05T08:22:16;100397.91;;;8.55;100.00
55610;BME280;41486;52.502;13.486;2023-01-05T08:24:44;100405.34;;;8.61;100.00
55610;BME280;41486;52.502;13.486;2023-01-05T08:27:12;100418.03;;;8.55;100.00
55610;BME280;41486;52.502;13.486;2023-01-05T08:29:42;100408.63;;;8.52;100.00
55610;BME280;41486;52.502;13.486;2023-01-05T08:32:10;100396.97;;;8.56;100.00
55610;BME280;41486;52.502;13.486;2023-01-05T08:34:38;100418.03;;;8.55;100.00
55610;BME280;41486;52.502;13.486;2023-01-05T08:37:07;100421.28;;;8.58;100.00
55610;BME280;41486;52.502;13.486;2023-01-05T08:39:37;100436.00;;;8.61;100.00
55610;BME280;41486;52.502;13.486;2023-01-05T08:42:07;100427.84;;;8.52;100.00
55610;BME280;41486;52.502;13.486;2023-01-05T08:44:41;100419.84;;;8.54;100.00
55610;BME280;41486;52.502;13.486;2023-01-05T08:47:09;100415.41;;;8.55;100.00
55610;BME280;41486;52.502;13.486;2023-01-05T08:49:37;100438.69;;;8.59;100.00
55610;BME280;41486;52.502;13.486;2023-01-05T08:52:05;100430.22;;;8.56;100.00
55610;BME280;41486;52.502;13.486;2023-01-05T08:54:38;100418.03;;;8.55;100.00
55610;BME280;41486;52.502;13.486;2023-01-05T08:57:06;100445.34;;;8.52;100.00
55610;BME280;41486;52.502;13.486;2023-01-05T08:59:34;100445.44;;;8.50;100.00
55610;BME280;41486;52.502;13.486;2023-01-05T09:02:09;100440.22;;;8.50;100.00
55610;BME280;41486;52.502;13.486;2023-01-05T09:04:38;100449.44;;;8.56;100.00
55610;BME280;41486;52.502;13.486;2023-01-05T09:07:06;100450.81;;;8.49;100.00
55610;BME280;41486;52.502;13.486;2023-01-05T09:09:35;100446.06;;;8.41;100.00
55610;BME280;41486;52.502;13.486;2023-01-05T09:12:06;100453.63;;;8.46;100.00
55610;BME280;41486;52.502;13.486;2023-01-05T09:14:34;100459.38;;;8.51;100.00
55610;BME280;41486;52.502;13.486;2023-01-05T09:17:02;100470.13;;;8.48;100.00
55610;BME280;41486;52.502;13.486;2023-01-05T09:19:33;100474.31;;;8.50;100.00
55610;BME280;41486;52.502;13.486;2023-01-05T09:22:02;100474.31;;;8.50;100.00
55610;BME280;41486;52.502;13.486;2023-01-05T09:24:33;100503.34;;;8.47;100.00
55610;BME280;41486;52.502;13.486;2023-01-05T09:27:01;100478.97;;;8.45;100.00
55610;BME280;41486;52.502;13.486;2023-01-05T09:29:32;100488.47;;;8.48;100.00
55610;BME280;41486;52.502;13.486;2023-01-05T09:32:04;100503.88;;;8.52;100.00
55610;BME280;41486;52.502;13.486;2023-01-05T09:34:32;100506.88;;;8.46;100.00
55610;BME280;41486;52.502;13.486;2023-01-05T09:37:00;100499.66;;;8.50;100.00
55610;BME280;41486;52.502;13.486;2023-01-05T09:39:40;100505.78;;;8.50;100.00
55610;BME280;41486;52.502;13.486;2023-01-05T09:42:13;100509.94;;;8.40;100.00
55610;BME280;41486;52.502;13.486;2023-01-05T09:44:46;100496.84;;;8.53;100.00
55610;BME280;41486;52.502;13.486;2023-01-05T09:47:26;100533.88;;;8.61;99.51
55610;BME280;41486;52.502;13.486;2023-01-05T09:49:57;100525.88;;;8.63;99.46
55610;BME280;41486;52.502;13.486;2023-01-05T09:52:28;100522.84;;;8.69;99.26
55610;BME280;41486;52.502;13.486;2023-01-05T09:55:11;100510.44;;;8.71;99.73
55610;BME280;41486;52.502;13.486;2023-01-05T09:57:47;100513.69;;;8.75;96.92
55610;BME280;41486;52.502;13.486;2023-01-05T10:00:22;100520.50;;;8.77;97.50
55610;BME280;41486;52.502;13.486;2023-01-05T10:02:52;100544.31;;;8.87;93.96
55610;BME280;41486;52.502;13.486;2023-01-05T10:05:25;100531.19;;;8.87;94.42
55610;BME280;41486;52.502;13.486;2023-01-05T10:07:59;100539.91;;;8.88;93.18
55610;BME280;41486;52.502;13.486;2023-01-05T10:10:42;100494.34;;;8.89;92.32
55610;BME280;41486;52.502;13.486;2023-01-05T10:13:20;100522.38;;;8.88;92.41
55610;BME280;41486;52.502;13.486;2023-01-05T10:15:54;100530.13;;;8.90;91.78
55610;BME280;41486;52.502;13.486;2023-01-05T10:18:23;100538.13;;;8.88;92.02
55610;BME280;41486;52.502;13.486;2023-01-05T10:21:02;100552.25;;;8.98;91.57
55610;BME280;41486;52.502;13.486;2023-01-05T10:26:35;100518.56;;;8.92;92.59
55610;BME280;41486;52.502;13.486;2023-01-05T10:29:33;100542.06;;;8.94;90.35
55610;BME280;41486;52.502;13.486;2023-01-05T10:32:16;100541.44;;;9.03;88.77
55610;BME280;41486;52.502;13.486;2023-01-05T10:34:54;100528.22;;;9.05;88.58
55610;BME280;41486;52.502;13.486;2023-01-05T10:40:26;100542.78;;;9.09;88.10
55610;BME280;41486;52.502;13.486;2023-01-05T10:43:21;100526.41;;;9.05;88.52
55610;BME280;41486;52.502;13.486;2023-01-05T10:45:51;100555.28;;;9.05;87.39
55610;BME280;41486;52.502;13.486;2023-01-05T10:48:42;100527.44;;;9.15;84.96
55610;BME280;41486;52.502;13.486;2023-01-05T10:51:11;100539.72;;;9.15;85.70
55610;BME280;41486;52.502;13.486;2023-01-05T10:53:40;100555.38;;;9.17;85.96
55610;BME280;41486;52.502;13.486;2023-01-05T10:56:14;100552.50;;;9.20;86.06
55610;BME280;41486;52.502;13.486;2023-01-05T10:58:43;100564.69;;;9.21;86.74
55610;BME280;41486;52.502;13.486;2023-01-05T11:01:21;100581.06;;;9.24;86.68
55610;BME280;41486;52.502;13.486;2023-01-05T11:03:55;100555.13;;;9.20;86.39
55610;BME280;41486;52.502;13.486;2023-01-05T11:06:49;100602.50;;;9.18;86.31
55610;BME280;41486;52.502;13.486;2023-01-05T11:09:20;100592.81;;;9.19;87.36
55610;BME280;41486;52.502;13.486;2023-01-05T11:11:53;100576.25;;;9.18;86.36
55610;BME280;41486;52.502;13.486;2023-01-05T11:14:21;100577.19;;;9.17;86.70
55610;BME280;41486;52.502;13.486;2023-01-05T11:17:00;100579.09;;;9.15;87.02
55610;BME280;41486;52.502;13.486;2023-01-05T11:19:35;100605.56;;;9.12;87.35
55610;BME280;41486;52.502;13.486;2023-01-05T11:22:07;100620.78;;;9.07;87.42
55610;BME280;41486;52.502;13.486;2023-01-05T11:24:53;100588.59;;;9.05;87.92
55610;BME280;41486;52.502;13.486;2023-01-05T11:27:23;100597.47;;;9.15;87.17
55610;BME280;41486;52.502;13.486;2023-01-05T11:30:18;100589.09;;;9.10;87.55
55610;BME280;41486;52.502;13.486;2023-01-05T11:32:50;100602.84;;;9.13;88.67
55610;BME280;41486;52.502;13.486;2023-01-05T11:35:23;100602.34;;;9.08;88.70
55610;BME280;41486;52.502;13.486;2023-01-05T11:37:53;100633.91;;;9.07;88.90
55610;BME280;41486;52.502;13.486;2023-01-05T11:40:28;100640.53;;;9.12;87.66
55610;BME280;41486;52.502;13.486;2023-01-05T11:43:08;100616.06;;;9.12;87.94
55610;BME280;41486;52.502;13.486;2023-01-05T11:45:44;100605.44;;;9.26;87.35
55610;BME280;41486;52.502;13.486;2023-01-05T11:48:17;100631.81;;;9.25;88.13
55610;BME280;41486;52.502;13.486;2023-01-05T11:50:49;100652.91;;;9.23;87.67
55610;BME280;41486;52.502;13.486;2023-01-05T11:53:25;100646.94;;;9.21;87.32
55610;BME280;41486;52.502;13.486;2023-01-05T11:56:12;100655.84;;;9.19;85.82
55610;BME280;41486;52.502;13.486;2023-01-05T11:58:44;100675.50;;;9.13;85.83
55610;BME280;41486;52.502;13.486;2023-01-05T12:01:46;100657.84;;;9.15;86.92
55610;BME280;41486;52.502;13.486;2023-01-05T12:04:41;100656.78;;;9.18;86.77
55610;BME280;41486;52.502;13.486;2023-01-05T12:07:28;100659.38;;;9.30;84.96
55610;BME280;41486;52.502;13.486;2023-01-05T12:10:03;100667.34;;;9.42;84.80
55610;BME280;41486;52.502;13.486;2023-01-05T12:12:51;100676.50;;;9.36;85.00
55610;BME280;41486;52.502;13.486;2023-01-05T12:15:48;100683.97;;;9.29;86.31
55610;BME280;41486;52.502;13.486;2023-01-05T12:18:48;100677.44;;;9.35;86.95
55610;BME280;41486;52.502;13.486;2023-01-05T12:21:22;100693.50;;;9.43;86.59
55610;BME280;41486;52.502;13.486;2023-01-05T12:24:11;100671.13;;;9.38;85.62
55610;BME280;41486;52.502;13.486;2023-01-05T12:26:48;100702.88;;;9.35;86.81
55610;BME280;41486;52.502;13.486;2023-01-05T12:30:02;100699.06;;;9.52;86.63
55610;BME280;41486;52.502;13.486;2023-01-05T12:33:10;100693.91;;;9.50;85.89
55610;BME280;41486;52.502;13.486;2023-01-05T12:36:11;100729.72;;;9.64;84.89
55610;BME280;41486;52.502;13.486;2023-01-05T12:38:47;100715.94;;;9.73;84.21
55610;BME280;41486;52.502;13.486;2023-01-05T12:41:38;100723.09;;;9.71;83.35
55610;BME280;41486;52.502;13.486;2023-01-05T12:44:36;100724.59;;;9.50;85.56
55610;BME280;41486;52.502;13.486;2023-01-05T12:47:26;100733.94;;;10.75;80.80
55610;BME280;41486;52.502;13.486;2023-01-05T12:49:59;100736.06;;;10.10;81.31
55610;BME280;41486;52.502;13.486;2023-01-05T12:52:32;100731.66;;;10.10;81.34
55610;BME280;41486;52.502;13.486;2023-01-05T12:55:05;100720.91;;;9.65;83.76
55610;BME280;41486;52.502;13.486;2023-01-05T12:57:42;100739.78;;;9.70;83.36
55610;BME280;41486;52.502;13.486;2023-01-05T13:00:13;100764.75;;;9.39;84.60
55610;BME280;41486;52.502;13.486;2023-01-05T13:02:46;100756.56;;;9.30;85.76
55610;BME280;41486;52.502;13.486;2023-01-05T13:05:22;100768.34;;;9.25;85.81
55610;BME280;41486;52.502;13.486;2023-01-05T13:07:59;100768.72;;;9.44;83.23
55610;BME280;41486;52.502;13.486;2023-01-05T13:10:36;100747.22;;;9.13;85.14
55610;BME280;41486;52.502;13.486;2023-01-05T13:13:11;100753.63;;;9.09;84.77
55610;BME280;41486;52.502;13.486;2023-01-05T13:15:44;100767.91;;;9.05;85.23
55610;BME280;41486;52.502;13.486;2023-01-05T13:18:21;100762.34;;;10.47;79.53
55610;BME280;41486;52.502;13.486;2023-01-05T13:20:56;100792.63;;;10.16;79.88